Time;durP1;ratioP1;P1;durP2;ratioP2;P2;SDS_P1;SDS_P2;PMS_P1;PMS_P2;Temp;Humidity;BMP_temperature;BMP_pressure;BME280_temperature;BME280_humidity;BME280_pressure;Samples;Min_cycle;Max_cycle;Signal;HPM_P1;HPM_P2
2021/08/25 00:02:23;;;;;;;27.17;15.55;;;18.70;63.70;;;;;;5036229;28;20025;-71
2021/08/25 00:04:49;;;;;;;21.35;13.38;;;18.70;64.20;;;;;;5035070;28;20057;-71
2021/08/25 00:07:14;;;;;;;21.58;13.77;;;18.70;64.00;;;;;;5039991;28;20029;-72
2021/08/25 00:09:41;;;;;;;27.58;17.90;;;18.70;64.00;;;;;;5036475;28;20021;-72
2021/08/25 00:12:09;;;;;;;23.10;14.68;;;18.60;64.50;;;;;;5044094;28;20471;-72
2021/08/25 00:14:40;;;;;;;23.70;14.77;;;18.60;64.50;;;;;;5055014;28;20364;-73
2021/08/25 00:17:06;;;;;;;20.67;13.80;;;18.50;64.40;;;;;;5055064;28;20078;-72
2021/08/25 00:19:31;;;;;;;24.52;14.90;;;18.50;64.40;;;;;;5053402;28;20033;-72
2021/08/25 00:21:57;;;;;;;25.92;15.88;;;18.50;64.50;;;;;;5035626;28;20036;-72
2021/08/25 00:24:23;;;;;;;29.95;19.38;;;18.60;64.90;;;;;;5035306;28;20033;-72
2021/08/25 00:26:48;;;;;;;40.65;26.10;;;18.50;65.80;;;;;;5036541;28;20030;-71
2021/08/25 00:29:15;;;;;;;46.28;29.35;;;18.50;67.10;;;;;;5035024;28;20029;-71
2021/08/25 00:31:41;;;;;;;39.25;24.98;;;18.40;68.20;;;;;;5034992;28;20064;-71
2021/08/25 00:34:07;;;;;;;36.58;22.98;;;18.30;69.40;;;;;;5035963;28;20464;-71
2021/08/25 00:36:33;;;;;;;33.72;21.88;;;18.30;70.30;;;;;;5037797;28;20030;-71
2021/08/25 00:38:59;;;;;;;35.00;23.15;;;18.20;70.70;;;;;;5034601;28;20460;-71
2021/08/25 00:41:24;;;;;;;34.53;21.20;;;18.10;71.20;;;;;;5053284;28;20025;-71
2021/08/25 00:43:50;;;;;;;33.22;21.52;;;18.10;71.50;;;;;;5054570;28;20135;-71
2021/08/25 00:46:16;;;;;;;34.20;21.52;;;18.10;71.80;;;;;;5055132;28;20368;-71
2021/08/25 00:48:47;;;;;;;25.25;17.23;;;18.00;72.00;;;;;;5055224;28;20025;-71
2021/08/25 00:51:14;;;;;;;15.55;9.13;;;18.10;70.40;;;;;;5037264;28;20029;-71
2021/08/25 00:53:41;;;;;;;13.45;9.13;;;18.10;68.60;;;;;;5034891;28;20034;-71
2021/08/25 00:56:07;;;;;;;16.17;9.20;;;18.20;67.20;;;;;;5034702;28;20029;-71
2021/08/25 00:58:36;;;;;;;13.85;8.52;;;18.30;66.30;;;;;;5044714;28;20516;-71
2021/08/25 01:01:07;;;;;;;14.40;9.35;;;18.40;65.20;;;;;;5055321;28;20115;-72
2021/08/25 01:03:46;;;;;;;18.27;11.05;;;18.40;64.40;;;;;;5054092;28;20138;-72
2021/08/25 01:06:20;;;;;;;17.17;11.27;;;18.60;63.80;;;;;;5055852;28;20111;-74
2021/08/25 01:08:46;;;;;;;16.40;9.43;;;18.60;63.40;;;;;;5044675;28;20037;-72
2021/08/25 01:11:12;;;;;;;17.23;9.70;;;18.60;63.00;;;;;;5035356;28;20029;-72
2021/08/25 01:13:38;;;;;;;15.00;9.88;;;18.70;62.70;;;;;;5035555;28;20100;-72
2021/08/25 01:16:05;;;;;;;17.88;10.30;;;18.70;62.40;;;;;;5035989;28;20083;-71
2021/08/25 01:18:31;;;;;;;14.13;8.45;;;18.70;62.30;;;;;;5042079;28;20484;-72
2021/08/25 01:20:59;;;;;;;13.00;8.48;;;18.70;62.10;;;;;;5054002;28;20102;-72
2021/08/25 01:23:25;;;;;;;16.10;10.77;;;18.70;61.80;;;;;;5055186;28;20025;-72
2021/08/25 01:25:56;;;;;;;19.35;11.95;;;18.70;62.20;;;;;;5054481;28;20021;-72
2021/08/25 01:28:26;;;;;;;34.05;22.25;;;18.70;62.40;;;;;;5055023;28;20039;-70
2021/08/25 01:30:52;;;;;;;20.38;14.27;;;18.60;64.20;;;;;;5046434;28;20039;-74
2021/08/25 01:33:29;;;;;;;54.60;35.83;;;18.50;64.20;;;;;;5055174;28;20070;-74
2021/08/25 01:35:55;;;;;;;21.95;12.85;;;18.50;66.30;;;;;;5051605;28;20036;-74
2021/08/25 01:38:37;;;;;;;21.77;12.05;;;18.40;65.20;;;;;;5041196;28;20025;-74
2021/08/25 01:41:03;;;;;;;17.98;11.40;;;18.30;64.40;;;;;;5040015;28;20041;-74
2021/08/25 01:43:30;;;;;;;22.25;12.73;;;18.30;64.20;;;;;;5035087;28;20380;-74
2021/08/25 01:45:56;;;;;;;17.85;11.20;;;18.30;64.10;;;;;;5033634;28;20108;-74
2021/08/25 01:48:22;;;;;;;20.73;10.23;;;18.20;63.90;;;;;;5033432;28;20123;-75
2021/08/25 01:50:48;;;;;;;14.52;9.75;;;18.20;63.80;;;;;;5043703;28;20573;-74
2021/08/25 01:53:17;;;;;;;15.52;11.18;;;18.20;63.60;;;;;;5053949;28;20478;-75
2021/08/25 01:55:43;;;;;;;23.38;13.93;;;18.20;63.60;;;;;;5053009;28;20120;-76
2021/08/25 01:58:09;;;;;;;17.52;11.93;;;18.30;64.30;;;;;;5033561;28;20030;-75
2021/08/25 02:00:35;;;;;;;28.80;19.27;;;18.30;64.40;;;;;;5043397;28;20056;-75
2021/08/25 02:03:01;;;;;;;30.45;20.98;;;18.30;65.70;;;;;;5053094;28;20067;-74
2021/08/25 02:05:26;;;;;;;25.98;16.63;;;18.30;66.80;;;;;;5049557;28;20081;-75
2021/08/25 02:07:52;;;;;;;25.52;16.90;;;18.30;67.10;;;;;;5033559;28;20025;-76
2021/08/25 02:10:18;;;;;;;20.30;14.57;;;18.30;67.60;;;;;;5034384;28;20078;-76
2021/08/25 02:12:44;;;;;;;27.33;15.52;;;18.30;67.60;;;;;;5033065;28;20483;-76
2021/08/25 02:15:10;;;;;;;23.58;15.25;;;18.30;67.80;;;;;;5033449;28;20036;-75
2021/08/25 02:17:36;;;;;;;24.55;14.55;;;18.30;68.10;;;;;;5052955;28;20025;-76
2021/08/25 02:20:04;;;;;;;29.00;15.40;;;18.20;68.40;;;;;;5052928;28;20040;-75
2021/08/25 02:22:29;;;;;;;30.33;19.10;;;18.10;68.50;;;;;;5052989;28;20436;-76
2021/08/25 02:24:55;;;;;;;29.33;17.85;;;18.10;69.30;;;;;;5053212;28;20122;-76
2021/08/25 02:27:21;;;;;;;28.35;17.70;;;18.00;70.00;;;;;;5033638;28;20475;-76
2021/08/25 02:29:55;;;;;;;25.48;14.95;;;17.90;70.40;;;;;;5032712;28;20032;-76
2021/08/25 02:32:25;;;;;;;27.92;16.25;;;17.80;70.40;;;;;;5033954;28;20033;-76
2021/08/25 02:34:51;;;;;;;23.92;13.57;;;17.80;70.30;;;;;;5032945;28;20048;-76
2021/08/25 02:37:17;;;;;;;21.02;13.98;;;17.80;70.30;;;;;;5047396;28;20025;-76
2021/08/25 02:39:43;;;;;;;20.15;12.52;;;17.90;70.40;;;;;;5053647;28;20387;-76
2021/08/25 02:42:09;;;;;;;22.17;13.63;;;17.90;70.40;;;;;;5052453;28;20021;-76
2021/08/25 02:44:35;;;;;;;17.92;11.57;;;17.90;70.50;;;;;;5043574;28;20076;-76
2021/08/25 02:47:00;;;;;;;17.48;12.15;;;18.00;70.10;;;;;;5032628;28;20032;-76
2021/08/25 02:49:26;;;;;;;16.55;11.38;;;18.10;69.80;;;;;;5032665;28;20494;-76
2021/08/25 02:51:51;;;;;;;18.15;12.63;;;18.20;69.50;;;;;;5046042;28;20075;-76
2021/08/25 02:54:17;;;;;;;19.50;12.32;;;18.30;69.40;;;;;;5052456;28;20037;-75
2021/08/25 02:56:43;;;;;;;21.90;12.57;;;18.30;69.00;;;;;;5052388;28;20029;-76
2021/08/25 02:59:08;;;;;;;22.00;12.80;;;18.30;68.60;;;;;;5052450;28;20033;-76
2021/08/25 03:01:34;;;;;;;24.73;13.85;;;18.40;68.50;;;;;;5044696;28;20021;-75
2021/08/25 03:04:00;;;;;;;20.45;13.10;;;18.50;68.10;;;;;;5053538;28;20057;-75
2021/08/25 03:06:26;;;;;;;23.02;13.73;;;18.60;67.80;;;;;;5052349;28;20029;-76
2021/08/25 03:08:51;;;;;;;19.67;13.70;;;18.60;67.60;;;;;;5052150;28;20025;-75
2021/08/25 03:11:17;;;;;;;19.75;12.77;;;18.60;67.70;;;;;;5040859;28;20508;-76
2021/08/25 03:13:43;;;;;;;22.80;13.80;;;18.60;67.40;;;;;;5053290;28;20032;-76
2021/08/25 03:16:09;;;;;;;22.33;14.20;;;18.70;67.60;;;;;;5035375;28;20029;-76
2021/08/25 03:18:35;;;;;;;22.33;13.10;;;18.60;67.80;;;;;;5053457;28;20025;-76
2021/08/25 03:21:00;;;;;;;26.48;14.13;;;18.60;68.00;;;;;;5042584;28;20032;-75
2021/08/25 03:23:26;;;;;;;25.92;14.30;;;18.60;67.50;;;;;;5032237;28;20026;-76
2021/08/25 03:25:53;;;;;;;24.30;13.90;;;18.60;67.10;;;;;;5033156;28;20541;-75
2021/08/25 03:28:19;;;;;;;26.55;15.18;;;18.60;66.80;;;;;;5036029;28;20026;-75
2021/08/25 03:30:44;;;;;;;36.17;15.65;;;18.60;67.80;;;;;;5037937;28;20486;-75
2021/08/25 03:33:10;;;;;;;24.88;14.93;;;18.50;67.60;;;;;;5047689;28;20029;-75
2021/08/25 03:35:36;;;;;;;28.77;16.00;;;18.50;68.10;;;;;;5038914;28;20544;-75
2021/08/25 03:38:02;;;;;;;26.30;16.33;;;18.40;69.20;;;;;;5035823;28;20044;-75
2021/08/25 03:40:28;;;;;;;28.20;17.65;;;18.40;68.30;;;;;;5038277;28;20057;-75
2021/08/25 03:42:54;;;;;;;27.70;16.83;;;18.30;68.00;;;;;;5037790;28;20037;-75
2021/08/25 03:45:19;;;;;;;28.85;18.23;;;18.30;68.40;;;;;;5037132;28;20034;-75
2021/08/25 03:47:45;;;;;;;31.90;21.42;;;18.20;68.90;;;;;;5055200;28;20036;-75
2021/08/25 03:50:11;;;;;;;33.78;19.58;;;18.20;69.60;;;;;;5055094;28;20037;-75
2021/08/25 03:52:36;;;;;;;31.10;19.30;;;18.00;70.80;;;;;;5055725;28;20031;-75
2021/08/25 03:55:02;;;;;;;32.25;20.05;;;17.70;71.20;;;;;;5057042;28;20394;-74
2021/08/25 03:57:28;;;;;;;40.20;23.30;;;17.60;71.60;;;;;;5054717;28;20061;-75
2021/08/25 03:59:54;;;;;;;38.70;22.30;;;17.70;71.70;;;;;;5045349;28;20064;-76
2021/08/25 04:02:19;;;;;;;40.17;22.73;;;17.70;71.80;;;;;;5039796;28;20446;-75
2021/08/25 04:04:45;;;;;;;44.47;26.58;;;17.70;72.30;;;;;;5035017;28;20061;-76
2021/08/25 04:07:12;;;;;;;50.25;23.70;;;17.70;72.60;;;;;;5049789;28;20029;-75
2021/08/25 04:09:39;;;;;;;48.13;26.05;;;17.60;73.20;;;;;;5046296;28;20025;-75
2021/08/25 04:12:04;;;;;;;46.83;26.05;;;17.60;73.50;;;;;;5036228;28;20029;-77
2021/08/25 04:14:30;;;;;;;44.20;27.35;;;17.60;73.90;;;;;;5052737;28;20040;-81
2021/08/25 04:16:56;;;;;;;47.40;27.20;;;17.60;74.10;;;;;;5035186;28;20026;-72
2021/08/25 04:19:21;;;;;;;44.80;25.80;;;17.60;74.40;;;;;;5036530;28;20032;-72
2021/08/25 04:21:47;;;;;;;56.70;31.35;;;17.60;74.50;;;;;;5036810;28;20143;-77
2021/08/25 04:24:13;;;;;;;48.60;28.48;;;17.60;74.40;;;;;;5049390;28;20029;-77
2021/08/25 04:26:38;;;;;;;37.38;21.75;;;17.60;74.20;;;;;;5034681;28;20187;-77
2021/08/25 04:29:04;;;;;;;36.75;21.83;;;17.70;73.90;;;;;;5072760;28;20055;-78
2021/08/25 04:31:30;;;;;;;36.50;22.77;;;17.60;73.90;;;;;;5074559;28;20025;-72
2021/08/25 04:33:55;;;;;;;33.45;21.75;;;17.60;74.00;;;;;;5075951;28;20029;-71
2021/08/25 04:36:21;;;;;;;43.30;22.20;;;17.60;74.40;;;;;;5059635;28;20034;-75
2021/08/25 04:38:47;;;;;;;35.72;22.13;;;17.50;74.80;;;;;;5043514;28;20026;-77
2021/08/25 04:41:12;;;;;;;36.75;22.80;;;17.40;75.20;;;;;;5057504;28;20029;-78
2021/08/25 04:43:38;;;;;;;38.78;22.92;;;17.40;75.40;;;;;;5056158;28;20032;-78
2021/08/25 04:46:04;;;;;;;42.75;22.55;;;17.50;75.90;;;;;;5058837;28;20079;-70
2021/08/25 04:48:29;;;;;;;37.65;21.70;;;17.50;76.00;;;;;;5060245;28;20024;-71
2021/08/25 04:50:55;;;;;;;37.55;22.10;;;17.60;76.00;;;;;;5075832;28;20360;-72
2021/08/25 04:53:21;;;;;;;38.05;21.90;;;17.60;75.90;;;;;;5074265;28;20064;-72
2021/08/25 04:55:47;;;;;;;39.05;21.88;;;17.70;75.80;;;;;;5074000;28;20032;-76
2021/08/25 04:58:12;;;;;;;34.92;23.15;;;17.80;75.60;;;;;;5060487;28;20467;-72
2021/08/25 05:00:38;;;;;;;40.03;22.17;;;17.80;75.20;;;;;;5054474;28;20048;-69
2021/08/25 05:03:03;;;;;;;41.15;20.55;;;18.00;75.00;;;;;;5055927;28;20108;-83
2021/08/25 05:05:29;;;;;;;39.47;21.23;;;18.20;74.50;;;;;;5054161;28;20174;-82
2021/08/25 05:07:55;;;;;;;36.70;21.83;;;18.20;74.10;;;;;;5054664;28;20025;-78
2021/08/25 05:10:21;;;;;;;34.10;20.52;;;18.30;73.80;;;;;;5054762;28;20126;-87
2021/08/25 05:12:47;;;;;;;44.22;21.65;;;18.40;73.50;;;;;;5055112;28;20052;-81
2021/08/25 05:15:13;;;;;;;36.75;23.02;;;18.50;73.30;;;;;;5065988;28;20017;-77
2021/08/25 05:17:39;;;;;;;40.92;22.55;;;18.70;72.80;;;;;;5076296;28;20096;-74
2021/08/25 05:20:07;;;;;;;39.53;21.70;;;18.80;72.70;;;;;;5075237;28;20078;-77
2021/08/25 05:22:33;;;;;;;40.45;22.40;;;19.00;72.80;;;;;;5075279;28;20083;-70
2021/08/25 05:24:59;;;;;;;40.88;22.75;;;19.30;72.50;;;;;;5063234;28;20372;-67
2021/08/25 05:27:24;;;;;;;37.25;22.13;;;19.50;72.00;;;;;;5054287;28;20032;-68
2021/08/25 05:29:51;;;;;;;38.10;22.48;;;19.80;71.40;;;;;;5054963;28;20056;-67
2021/08/25 05:32:17;;;;;;;40.00;23.63;;;20.10;70.90;;;;;;5054935;28;20056;-67
2021/08/25 05:34:43;;;;;;;38.28;23.67;;;20.40;70.40;;;;;;5057533;28;20179;-70
2021/08/25 05:37:09;;;;;;;36.85;23.30;;;20.70;69.80;;;;;;5042504;28;20112;-70
2021/08/25 05:39:34;;;;;;;41.72;24.73;;;21.00;69.20;;;;;;5059419;28;20025;-70
2021/08/25 05:42:00;;;;;;;36.60;23.05;;;21.20;68.40;;;;;;5044582;28;20481;-75
2021/08/25 05:44:26;;;;;;;44.35;24.13;;;21.50;67.40;;;;;;5052861;28;20040;-74
2021/08/25 05:46:51;;;;;;;35.80;21.92;;;21.60;66.50;;;;;;5040466;28;20028;-76
2021/08/25 05:49:17;;;;;;;40.67;23.05;;;21.80;66.00;;;;;;5034087;28;20044;-80
2021/08/25 05:51:43;;;;;;;36.60;21.83;;;21.90;65.40;;;;;;5048088;28;20107;-73
2021/08/25 05:54:09;;;;;;;40.70;22.55;;;21.90;64.90;;;;;;5038808;28;20033;-79
2021/08/25 05:56:35;;;;;;;42.15;21.92;;;21.80;64.50;;;;;;5048479;28;20117;-79
2021/08/25 05:59:01;;;;;;;36.95;23.45;;;21.80;64.50;;;;;;5035024;28;20053;-79
2021/08/25 06:01:26;;;;;;;47.17;23.75;;;21.90;64.40;;;;;;5048363;28;20025;-81
2021/08/25 06:03:52;;;;;;;43.10;24.02;;;21.90;64.40;;;;;;5040926;28;20057;-79
2021/08/25 06:06:18;;;;;;;40.30;23.88;;;21.90;64.50;;;;;;5033159;28;20029;-79
2021/08/25 06:08:44;;;;;;;42.42;24.52;;;21.90;65.00;;;;;;5039031;28;20076;-80
2021/08/25 06:11:09;;;;;;;42.28;26.15;;;21.90;65.30;;;;;;5035407;28;20071;-78
2021/08/25 06:13:35;;;;;;;44.90;26.48;;;21.80;65.60;;;;;;5041805;28;20484;-78
2021/08/25 06:16:01;;;;;;;40.70;24.58;;;21.80;65.30;;;;;;5033203;28;20435;-78
2021/08/25 06:18:27;;;;;;;40.45;23.85;;;21.70;65.40;;;;;;5040588;28;20455;-69
2021/08/25 06:20:53;;;;;;;41.95;24.38;;;21.70;66.30;;;;;;5043567;28;20518;-72
2021/08/25 06:23:19;;;;;;;43.83;23.27;;;21.70;66.30;;;;;;5041069;28;20103;-73
2021/08/25 06:25:45;;;;;;;44.00;23.05;;;21.80;66.40;;;;;;5043298;28;20041;-72
2021/08/25 06:28:10;;;;;;;42.70;24.10;;;21.80;66.30;;;;;;5052075;28;20025;-72
2021/08/25 06:30:36;;;;;;;38.75;22.85;;;21.80;66.50;;;;;;5043784;28;20031;-73
2021/08/25 06:33:02;;;;;;;41.03;23.52;;;21.90;66.70;;;;;;5053940;28;20382;-73
2021/08/25 06:35:28;;;;;;;51.03;24.05;;;21.90;66.70;;;;;;5053038;28;20037;-73
2021/08/25 06:37:54;;;;;;;41.05;22.17;;;22.00;66.00;;;;;;5053867;28;20465;-73
2021/08/25 06:40:19;;;;;;;39.25;23.40;;;22.10;65.00;;;;;;5053812;28;20021;-73
2021/08/25 06:42:45;;;;;;;42.47;26.67;;;22.10;65.30;;;;;;5052533;28;20040;-73
2021/08/25 06:45:11;;;;;;;42.47;23.42;;;22.20;65.20;;;;;;5053740;28;20032;-73
2021/08/25 06:47:37;;;;;;;42.10;23.90;;;22.40;65.70;;;;;;5052444;28;20454;-73
2021/08/25 06:50:04;;;;;;;40.13;22.77;;;22.40;66.10;;;;;;5035122;28;20072;-73
2021/08/25 06:52:30;;;;;;;39.85;22.98;;;22.60;66.20;;;;;;5033556;28;20037;-87
2021/08/25 06:54:56;;;;;;;37.15;21.77;;;22.70;66.30;;;;;;5034056;28;20038;-81
2021/08/25 06:57:21;;;;;;;42.17;22.23;;;22.80;66.20;;;;;;5032372;28;20029;-83
2021/08/25 06:59:47;;;;;;;33.75;20.60;;;22.90;65.60;;;;;;5049092;28;20029;-88
2021/08/25 07:02:13;;;;;;;24.90;15.52;;;23.00;65.80;;;;;;5037789;28;20079;-81
2021/08/25 07:04:45;;;;;;;28.38;18.20;;;23.10;66.60;;;;;;5037568;28;20132;-68
2021/08/25 07:07:11;;;;;;;38.78;20.45;;;23.20;65.90;;;;;;5047673;28;20108;-80
2021/08/25 07:09:37;;;;;;;31.67;19.45;;;23.30;65.30;;;;;;5046586;28;20040;-79
2021/08/25 07:12:03;;;;;;;34.67;18.33;;;23.50;64.90;;;;;;5044347;28;20379;-80
2021/08/25 07:14:29;;;;;;;36.50;18.48;;;23.50;64.80;;;;;;5043750;28;20532;-79
2021/08/25 07:16:54;;;;;;;30.67;17.40;;;23.60;65.50;;;;;;5041306;28;20026;-80
2021/08/25 07:19:20;;;;;;;22.58;15.07;;;23.50;65.50;;;;;;5042388;28;20025;-80
2021/08/25 07:21:46;;;;;;;22.05;14.73;;;23.50;65.70;;;;;;5042374;28;20020;-68
2021/08/25 07:24:12;;;;;;;20.15;13.55;;;23.40;66.20;;;;;;5043391;28;20079;-68
2021/08/25 07:26:38;;;;;;;23.40;15.35;;;23.40;66.30;;;;;;5040520;28;20045;-68
2021/08/25 07:29:03;;;;;;;21.52;13.73;;;23.30;66.00;;;;;;5043091;28;20048;-68
2021/08/25 07:31:29;;;;;;;23.05;13.82;;;23.40;66.10;;;;;;5041846;28;20025;-68
2021/08/25 07:33:55;;;;;;;23.67;14.75;;;23.30;66.20;;;;;;5041604;28;20030;-69
2021/08/25 07:36:20;;;;;;;23.38;14.63;;;23.30;66.70;;;;;;5037041;28;20032;-69
2021/08/25 07:38:46;;;;;;;23.48;14.07;;;23.30;67.10;;;;;;5037690;28;20033;-69
2021/08/25 07:41:12;;;;;;;22.33;14.57;;;23.30;67.00;;;;;;5042607;28;20083;-69
2021/08/25 07:43:38;;;;;;;24.27;13.27;;;23.30;67.00;;;;;;5041322;28;20523;-69
2021/08/25 07:46:03;;;;;;;18.05;12.63;;;23.40;66.60;;;;;;5041527;28;20048;-68
2021/08/25 07:48:29;;;;;;;19.83;11.70;;;23.40;66.80;;;;;;5040234;28;20110;-67
2021/08/25 07:50:55;;;;;;;18.30;12.32;;;23.40;66.70;;;;;;5034531;28;20435;-68
2021/08/25 07:53:20;;;;;;;18.42;12.65;;;23.40;66.70;;;;;;5040767;28;20024;-67
2021/08/25 07:55:46;;;;;;;18.42;11.88;;;23.40;66.30;;;;;;5042285;28;20511;-67
2021/08/25 07:58:13;;;;;;;20.48;13.50;;;23.40;66.30;;;;;;5040631;28;20018;-67
2021/08/25 08:00:39;;;;;;;21.40;12.30;;;23.40;66.10;;;;;;5041726;28;20013;-67
2021/08/25 08:03:04;;;;;;;18.65;12.00;;;23.40;66.20;;;;;;5041776;28;20045;-69
2021/08/25 08:05:30;;;;;;;21.48;12.35;;;23.40;66.10;;;;;;5038574;28;20073;-70
2021/08/25 08:07:56;;;;;;;19.95;12.13;;;23.60;66.40;;;;;;5042281;28;20016;-67
2021/08/25 08:10:22;;;;;;;19.17;11.82;;;23.70;66.30;;;;;;5040319;28;20037;-68
2021/08/25 08:12:48;;;;;;;18.35;11.65;;;23.80;66.00;;;;;;5043053;28;20032;-69
2021/08/25 08:15:14;;;;;;;16.27;11.30;;;23.90;65.80;;;;;;5046132;28;20025;-68
2021/08/25 08:17:44;;;;;;;16.50;11.30;;;24.00;65.60;;;;;;5043400;28;20483;-67
2021/08/25 08:20:11;;;;;;;20.10;11.57;;;24.10;65.10;;;;;;5043695;28;20079;-69
2021/08/25 08:22:37;;;;;;;17.55;11.52;;;24.20;65.10;;;;;;5044595;28;20032;-68
2021/08/25 08:25:03;;;;;;;15.60;11.27;;;24.20;64.80;;;;;;5045038;28;20386;-69
2021/08/25 08:27:28;;;;;;;19.70;12.07;;;24.30;64.70;;;;;;5042688;28;20025;-69
2021/08/25 08:29:54;;;;;;;20.02;13.02;;;24.40;64.60;;;;;;5045742;28;20021;-68
2021/08/25 08:32:20;;;;;;;21.85;13.70;;;24.50;64.40;;;;;;5044198;28;20025;-69
2021/08/25 08:34:45;;;;;;;19.60;12.85;;;24.40;64.50;;;;;;5044155;28;20025;-69
2021/08/25 08:37:11;;;;;;;22.92;12.23;;;24.40;64.40;;;;;;5045939;28;20524;-69
2021/08/25 08:39:37;;;;;;;20.15;12.43;;;24.40;64.20;;;;;;5045284;28;20086;-69
2021/08/25 08:42:04;;;;;;;18.98;11.88;;;24.30;64.20;;;;;;5048398;28;20029;-69
2021/08/25 08:44:30;;;;;;;16.98;11.65;;;24.20;63.80;;;;;;5045561;28;20033;-69
2021/08/25 08:46:56;;;;;;;14.52;10.68;;;24.10;63.80;;;;;;5043497;28;20021;-69
2021/08/25 08:49:22;;;;;;;16.20;11.30;;;24.00;64.20;;;;;;5044410;28;20104;-69
2021/08/25 08:51:50;;;;;;;16.95;11.70;;;23.90;64.40;;;;;;5045260;28;20028;-68
2021/08/25 08:54:18;;;;;;;17.70;10.88;;;23.90;64.40;;;;;;5043507;28;20029;-68
2021/08/25 08:56:43;;;;;;;14.13;11.20;;;23.90;64.50;;;;;;5044075;28;20485;-68
2021/08/25 08:59:09;;;;;;;16.90;11.25;;;23.90;64.90;;;;;;5045077;28;20030;-71
2021/08/25 09:01:35;;;;;;;21.05;11.25;;;23.90;64.90;;;;;;5042937;28;20021;-71
2021/08/25 09:04:01;;;;;;;19.98;11.35;;;24.10;65.00;;;;;;5042716;28;20487;-69
2021/08/25 09:06:44;;;;;;;19.23;12.02;;;24.10;64.90;;;;;;5043460;28;20103;-68
2021/08/25 09:09:10;;;;;;;15.70;11.70;;;24.20;64.80;;;;;;5044893;28;20031;-69
2021/08/25 09:11:51;;;;;;;18.95;11.32;;;24.20;64.50;;;;;;5042946;28;20040;-68
2021/08/25 09:14:18;;;;;;;17.70;12.32;;;24.30;64.60;;;;;;5042949;28;20087;-69
2021/08/25 09:16:44;;;;;;;18.08;12.10;;;24.30;64.50;;;;;;5044305;28;20468;-69
2021/08/25 09:19:17;;;;;;;16.83;11.52;;;24.30;64.60;;;;;;5044860;28;20049;-71
2021/08/25 09:21:52;;;;;;;16.10;11.88;;;24.40;64.90;;;;;;5043923;28;20045;-69
2021/08/25 09:24:23;;;;;;;18.35;12.27;;;24.40;64.60;;;;;;5041721;28;20460;-68
2021/08/25 09:27:10;;;;;;;19.00;12.63;;;24.40;64.80;;;;;;5041653;28;20028;-69
2021/08/25 09:29:38;;;;;;;19.67;12.57;;;24.40;64.50;;;;;;5044739;28;20055;-69
2021/08/25 09:32:22;;;;;;;17.73;11.82;;;24.30;64.60;;;;;;5042111;28;20025;-69
2021/08/25 09:34:55;;;;;;;20.15;11.73;;;24.20;64.50;;;;;;5043450;28;20079;-69
2021/08/25 09:37:22;;;;;;;19.20;12.90;;;24.10;64.50;;;;;;5041924;28;20022;-69
2021/08/25 09:39:50;;;;;;;21.33;12.50;;;24.00;65.10;;;;;;5043073;28;20478;-70
2021/08/25 09:42:18;;;;;;;21.58;12.93;;;23.90;65.30;;;;;;5043197;28;20021;-69
2021/08/25 09:44:45;;;;;;;20.45;12.40;;;23.80;65.40;;;;;;5043300;28;20401;-69
2021/08/25 09:47:11;;;;;;;18.38;11.52;;;23.70;65.80;;;;;;5042434;28;20380;-69
2021/08/25 09:49:37;;;;;;;20.20;12.27;;;23.70;66.40;;;;;;5044060;28;20025;-81
2021/08/25 09:52:04;;;;;;;21.90;12.63;;;23.70;66.60;;;;;;5043464;28;20671;-81
2021/08/25 09:54:30;;;;;;;19.35;12.77;;;23.60;66.90;;;;;;5041172;28;20040;-81
2021/08/25 09:56:55;;;;;;;19.80;13.50;;;23.60;67.50;;;;;;5044249;28;20021;-82
2021/08/25 09:59:22;;;;;;;22.02;13.45;;;23.60;67.00;;;;;;5050051;28;20108;-81
2021/08/25 10:01:49;;;;;;;23.45;13.57;;;23.60;66.70;;;;;;5054106;28;20026;-81
2021/08/25 10:04:15;;;;;;;22.88;14.05;;;23.60;66.30;;;;;;5051332;28;20049;-81
2021/08/25 10:06:44;;;;;;;19.05;12.55;;;23.50;66.00;;;;;;5053026;28;20032;-81
2021/08/25 10:09:11;;;;;;;19.98;13.13;;;23.40;66.60;;;;;;5053548;28;20060;-81
2021/08/25 10:11:59;;;;;;;22.55;14.25;;;23.50;66.50;;;;;;5054278;28;20384;-81
2021/08/25 10:14:30;;;;;;;23.90;13.25;;;23.50;66.80;;;;;;5054145;28;20497;-81
2021/08/25 10:16:55;;;;;;;24.00;14.48;;;23.60;67.10;;;;;;5051205;28;20459;-81
2021/08/25 10:19:39;;;;;;;24.92;16.55;;;23.70;67.60;;;;;;5052473;28;20112;-81
2021/08/25 10:22:16;;;;;;;26.45;15.10;;;23.80;67.70;;;;;;5051859;28;20029;-81
2021/08/25 10:24:57;;;;;;;21.35;14.55;;;24.20;67.20;;;;;;5053850;28;20734;-81
2021/08/25 10:27:30;;;;;;;26.20;18.23;;;24.70;66.00;;;;;;5053797;28;20044;-82
2021/08/25 10:30:02;;;;;;;26.33;19.55;;;25.00;65.00;;;;;;5061089;28;20036;-80
2021/08/25 10:32:29;;;;;;;27.23;18.70;;;25.20;63.70;;;;;;5055773;28;20029;-81
2021/08/25 10:35:13;;;;;;;23.55;14.00;;;25.20;63.10;;;;;;5054440;28;20028;-80
2021/08/25 10:37:40;;;;;;;72.43;46.22;;;25.00;61.60;;;;;;5054522;28;20379;-81
2021/08/25 10:40:08;;;;;;;28.05;15.77;;;24.80;61.60;;;;;;5058930;28;20333;-81
2021/08/25 10:42:55;;;;;;;26.63;14.70;;;24.70;61.70;;;;;;5057117;28;20025;-81
2021/08/25 10:45:39;;;;;;;30.98;14.85;;;24.70;62.90;;;;;;5053078;28;20042;-81
2021/08/25 10:48:09;;;;;;;32.78;14.82;;;24.70;62.30;;;;;;5052660;28;20051;-82
2021/08/25 10:50:48;;;;;;;35.78;16.20;;;24.70;62.80;;;;;;5053142;28;20032;-81
2021/08/25 10:53:29;;;;;;;32.38;15.85;;;24.80;63.40;;;;;;5053948;28;20382;-81
2021/08/25 10:56:11;;;;;;;35.08;16.23;;;24.80;63.60;;;;;;5054839;28;20032;-81
2021/08/25 10:58:44;;;;;;;39.40;18.05;;;24.80;64.20;;;;;;5052572;28;20029;-82
2021/08/25 11:01:28;;;;;;;42.70;18.00;;;24.80;63.40;;;;;;5053941;28;20021;-79
2021/08/25 11:03:55;;;;;;;33.75;16.63;;;24.90;63.30;;;;;;5052416;28;20372;-81
2021/08/25 11:06:31;;;;;;;38.35;16.92;;;24.90;62.90;;;;;;5052425;28;20086;-80
2021/08/25 11:09:17;;;;;;;34.25;15.07;;;24.90;61.70;;;;;;5051970;28;20076;-80
2021/08/25 11:11:51;;;;;;;32.85;15.68;;;24.90;61.50;;;;;;5054164;28;20029;-80
2021/08/25 11:14:45;;;;;;;24.67;15.02;;;24.90;61.20;;;;;;5053642;28;20028;-80
2021/08/25 11:17:20;;;;;;;26.25;14.48;;;24.90;61.00;;;;;;5052332;28;20029;-81
2021/08/25 11:19:52;;;;;;;29.35;14.18;;;25.00;61.10;;;;;;5052938;28;20463;-80
2021/08/25 11:22:24;;;;;;;27.83;14.35;;;25.00;60.90;;;;;;5052074;28;20033;-80
2021/08/25 11:24:54;;;;;;;23.25;12.85;;;25.00;61.00;;;;;;5052060;28;20037;-79
2021/08/25 11:27:29;;;;;;;30.10;14.05;;;25.10;61.50;;;;;;5053123;28;20082;-80
2021/08/25 11:30:02;;;;;;;30.25;13.55;;;25.30;61.90;;;;;;5053445;28;20021;-79
2021/08/25 11:32:28;;;;;;;40.33;19.85;;;25.40;61.10;;;;;;5053213;28;20025;-80
2021/08/25 11:34:55;;;;;;;38.60;21.02;;;25.70;60.40;;;;;;5053414;28;20040;-80
2021/08/25 11:37:20;;;;;;;49.97;23.38;;;26.10;59.50;;;;;;5053410;28;20029;-81
2021/08/25 11:40:03;;;;;;;55.70;24.20;;;26.40;59.00;;;;;;5053365;28;20074;-79
2021/08/25 11:42:36;;;;;;;48.30;20.98;;;26.70;58.40;;;;;;5053373;28;20060;-79
2021/08/25 11:45:22;;;;;;;46.60;22.00;;;27.10;57.60;;;;;;5053184;28;20116;-78
2021/08/25 11:47:53;;;;;;;71.90;33.65;;;27.60;57.10;;;;;;5056262;28;20031;-79
2021/08/25 11:50:25;;;;;;;107.03;46.85;;;28.10;55.90;;;;;;5057071;28;20056;-80
2021/08/25 11:52:51;;;;;;;101.75;41.95;;;28.20;54.50;;;;;;5055655;28;20025;-79
2021/08/25 11:55:18;;;;;;;100.60;41.67;;;28.20;55.30;;;;;;5056233;28;20466;-78
2021/08/25 11:57:45;;;;;;;182.18;75.63;;;28.30;54.90;;;;;;5055795;28;20029;-78
2021/08/25 12:00:16;;;;;;;128.88;56.10;;;28.60;54.00;;;;;;5056914;28;20029;-79
2021/08/25 12:02:51;;;;;;;131.63;58.65;;;28.70;53.30;;;;;;5056028;28;20036;-79
2021/08/25 12:05:26;;;;;;;143.75;61.88;;;29.00;53.30;;;;;;5056820;28;20055;-79
2021/08/25 12:08:07;;;;;;;117.78;48.65;;;29.00;53.00;;;;;;5056310;28;20029;-79
2021/08/25 12:10:35;;;;;;;172.55;69.75;;;29.00;52.80;;;;;;5057024;28;20478;-79
2021/08/25 12:13:01;;;;;;;151.73;62.78;;;29.00;52.30;;;;;;5056953;28;20368;-79
2021/08/25 12:15:47;;;;;;;161.07;66.93;;;28.90;52.10;;;;;;5057350;28;20033;-80
2021/08/25 12:18:14;;;;;;;133.32;56.08;;;28.70;52.10;;;;;;5055291;28;20029;-80
2021/08/25 12:20:42;;;;;;;121.55;51.58;;;28.80;52.50;;;;;;5056713;28;20056;-79
2021/08/25 12:23:10;;;;;;;99.05;43.35;;;29.00;52.60;;;;;;5056410;28;20029;-80
2021/08/25 12:25:44;;;;;;;96.88;44.53;;;29.00;52.50;;;;;;5056093;28;20037;-79
2021/08/25 12:28:11;;;;;;;77.55;34.40;;;29.20;52.50;;;;;;5054887;28;20422;-79
2021/08/25 12:30:42;;;;;;;87.43;39.28;;;29.30;52.50;;;;;;5056400;28;20118;-79